createdAt,value
2023-04-06T00:01:25.577Z,101567.06
2023-04-06T00:03:52.307Z,101561.50
2023-04-06T00:06:19.199Z,101562.00
2023-04-06T00:08:45.978Z,101567.69
2023-04-06T00:11:12.694Z,101566.22
2023-04-06T00:13:39.425Z,101559.06
2023-04-06T00:16:07.033Z,101556.41
2023-04-06T00:18:33.974Z,101557.53
2023-04-06T00:21:00.620Z,101559.00
2023-04-06T00:23:27.217Z,101554.94
2023-04-06T00:25:54.004Z,101546.28
2023-04-06T00:28:26.212Z,101543.50
2023-04-06T00:30:53.930Z,101541.06
2023-04-06T00:33:21.295Z,101539.91
2023-04-06T00:35:48.014Z,101531.09
2023-04-06T00:38:16.035Z,101527.34
2023-04-06T00:40:45.268Z,101528.19
2023-04-06T00:43:12.658Z,101517.88
2023-04-06T00:45:41.058Z,101523.75
2023-04-06T00:48:08.300Z,101522.63
2023-04-06T00:50:36.075Z,101516.41
2023-04-06T00:53:03.359Z,101522.63
2023-04-06T00:55:31.115Z,101516.38
2023-04-06T00:58:01.661Z,101513.13
2023-04-06T01:00:32.097Z,101516.38
2023-04-06T01:03:02.555Z,101511.84
2023-04-06T01:05:41.738Z,101515.91
2023-04-06T01:08:16.686Z,101504.16
2023-04-06T01:10:43.651Z,101506.59
2023-04-06T01:13:24.344Z,101508.88
2023-04-06T01:15:58.211Z,101505.63
2023-04-06T01:18:32.946Z,101499.91
2023-04-06T01:21:17.617Z,101502.84
2023-04-06T01:24:01.739Z,101494.81
2023-04-06T01:26:37.190Z,101505.28
2023-04-06T01:29:07.489Z,101490.72
2023-04-06T01:31:34.446Z,101481.91
2023-04-06T01:34:01.107Z,101488.41
2023-04-06T01:36:28.132Z,101482.72
2023-04-06T01:39:09.437Z,101475.19
2023-04-06T01:41:39.304Z,101476.78
2023-04-06T01:44:06.512Z,101472.53
2023-04-06T01:46:33.941Z,101476.44
2023-04-06T01:49:04.999Z,101472.25
2023-04-06T01:51:37.270Z,101472.91
2023-04-06T01:54:07.017Z,101464.50
2023-04-06T01:56:43.593Z,101465.94
2023-04-06T01:59:31.075Z,101462.13
2023-04-06T02:02:00.218Z,101458.13
2023-04-06T02:04:28.132Z,101454.31
2023-04-06T02:07:05.880Z,101446.13
2023-04-06T02:09:33.105Z,101449.56
2023-04-06T02:12:02.302Z,101440.63
2023-04-06T02:14:32.162Z,101442.97
2023-04-06T02:17:00.981Z,101440.00
2023-04-06T02:19:27.935Z,101445.13
2023-04-06T02:21:54.890Z,101441.72
2023-04-06T02:24:21.929Z,101432.00
2023-04-06T02:26:48.593Z,101425.63
2023-04-06T02:29:15.306Z,101424.84
2023-04-06T02:31:42.332Z,101425.63
2023-04-06T02:34:12.863Z,101425.28
2023-04-06T02:36:42.876Z,101421.22
2023-04-06T02:39:09.785Z,101415.75
2023-04-06T02:41:37.059Z,101420.81
2023-04-06T02:44:05.497Z,101412.66
2023-04-06T02:46:38.683Z,101408.47
2023-04-06T02:49:05.459Z,101410.53
2023-04-06T02:51:34.543Z,101406.69
2023-04-06T02:54:14.970Z,101410.25
2023-04-06T02:56:41.893Z,101409.81
2023-04-06T02:59:08.952Z,101403.47
2023-04-06T03:01:36.079Z,101402.47
2023-04-06T03:04:05.578Z,101401.47
2023-04-06T03:06:32.477Z,101399.13
2023-04-06T03:09:08.689Z,101392.81
2023-04-06T03:11:36.218Z,101399.38
2023-04-06T03:14:02.784Z,101397.56
2023-04-06T03:16:29.404Z,101395.94
2023-04-06T03:18:56.666Z,101391.66
2023-04-06T03:21:23.736Z,101395.50
2023-04-06T03:23:52.598Z,101391.63
2023-04-06T03:26:19.553Z,101387.47
2023-04-06T03:28:46.127Z,101389.06
2023-04-06T03:31:13.244Z,101383.56
2023-04-06T03:33:55.368Z,101380.81
2023-04-06T03:36:27.214Z,101380.38
2023-04-06T03:38:56.198Z,101386.81
2023-04-06T03:41:23.122Z,101379.75
2023-04-06T03:43:59.498Z,101374.50
2023-04-06T03:46:26.562Z,101369.13
2023-04-06T03:48:56.605Z,101379.97
2023-04-06T03:51:24.413Z,101372.66
2023-04-06T03:53:51.284Z,101367.25
2023-04-06T03:56:17.912Z,101374.59
2023-04-06T03:58:46.382Z,101371.91
2023-04-06T04:01:13.414Z,101367.78
2023-04-06T04:03:40.383Z,101377.38
2023-04-06T04:06:07.732Z,101377.56
2023-04-06T04:08:34.666Z,101369.81
2023-04-06T04:11:04.566Z,101369.41
2023-04-06T04:13:31.711Z,101367.56
2023-04-06T04:15:58.789Z,101364.41
2023-04-06T04:18:25.385Z,101369.09
2023-04-06T04:20:52.032Z,101364.75
2023-04-06T04:23:21.229Z,101368.19
2023-04-06T04:25:48.197Z,101363.59
2023-04-06T04:28:15.414Z,101356.44
2023-04-06T04:30:43.470Z,101365.31
2023-04-06T04:33:11.758Z,101364.78
2023-04-06T04:35:38.732Z,101359.38
2023-04-06T04:38:06.685Z,101358.38
2023-04-06T04:40:36.018Z,101356.81
2023-04-06T04:43:12.419Z,101362.16
2023-04-06T04:45:39.634Z,101354.38
2023-04-06T04:48:15.908Z,101351.66
2023-04-06T04:50:51.762Z,101344.25
2023-04-06T04:53:23.553Z,101348.84
2023-04-06T04:55:55.074Z,101342.78
2023-04-06T04:58:22.770Z,101354.66
2023-04-06T05:00:56.787Z,101356.09
2023-04-06T05:03:26.835Z,101350.41
2023-04-06T05:05:59.974Z,101349.50
2023-04-06T05:08:30.610Z,101345.91
2023-04-06T05:10:58.199Z,101343.78
2023-04-06T05:13:25.904Z,101349.13
2023-04-06T05:15:54.346Z,101353.84
2023-04-06T05:18:29.016Z,101346.66
2023-04-06T05:20:57.482Z,101352.47
2023-04-06T05:23:32.841Z,101346.22
2023-04-06T05:26:02.516Z,101345.38
2023-04-06T05:28:32.124Z,101354.88
2023-04-06T05:31:00.379Z,101353.09
2023-04-06T05:33:33.702Z,101348.44
2023-04-06T05:36:08.178Z,101354.25
2023-04-06T05:38:39.447Z,101362.03
2023-04-06T05:41:17.356Z,101361.13
2023-04-06T05:43:43.986Z,101355.00
2023-04-06T05:46:11.127Z,101346.66
2023-04-06T05:48:37.817Z,101355.81
2023-04-06T05:51:07.228Z,101354.81
2023-04-06T05:53:43.360Z,101351.41
2023-04-06T05:56:10.062Z,101347.19
2023-04-06T05:58:37.802Z,101348.22
2023-04-06T06:01:06.278Z,101350.28
2023-04-06T06:03:40.684Z,101349.34
2023-04-06T06:06:08.178Z,101350.31
2023-04-06T06:08:45.453Z,101347.66
2023-04-06T06:11:15.850Z,101347.72
2023-04-06T06:13:42.638Z,101347.72
2023-04-06T06:16:10.424Z,101354.88
2023-04-06T06:18:43.136Z,101348.44
2023-04-06T06:21:10.225Z,101347.75
2023-04-06T06:23:41.211Z,101353.56
2023-04-06T06:26:07.982Z,101353.63
2023-04-06T06:28:34.665Z,101344.91
2023-04-06T06:31:02.315Z,101348.28
2023-04-06T06:33:30.422Z,101340.91
2023-04-06T06:35:58.644Z,101343.59
2023-04-06T06:38:25.540Z,101348.81
2023-04-06T06:40:53.514Z,101349.47
2023-04-06T06:43:21.380Z,101349.72
2023-04-06T06:45:56.930Z,101354.97
2023-04-06T06:48:23.708Z,101352.78
2023-04-06T06:50:50.898Z,101349.88
2023-04-06T06:53:17.980Z,101342.97
2023-04-06T06:55:45.466Z,101338.84
2023-04-06T06:58:12.355Z,101340.78
2023-04-06T07:00:39.251Z,101345.06
2023-04-06T07:03:07.006Z,101338.88
2023-04-06T07:05:34.072Z,101339.59
2023-04-06T07:08:01.030Z,101347.94
2023-04-06T07:10:28.294Z,101349.97
2023-04-06T07:12:55.334Z,101349.56
2023-04-06T07:15:22.179Z,101346.34
2023-04-06T07:17:50.314Z,101344.94
2023-04-06T07:20:17.067Z,101336.19
2023-04-06T07:22:50.256Z,101343.56
2023-04-06T07:25:17.529Z,101336.94
2023-04-06T07:27:44.732Z,101342.94
2023-04-06T07:30:12.310Z,101337.63
2023-04-06T07:32:39.289Z,101340.28
2023-04-06T07:35:06.855Z,101341.72
2023-04-06T07:37:34.070Z,101338.38
2023-04-06T07:40:01.519Z,101336.97
2023-04-06T07:42:30.483Z,101338.66
2023-04-06T07:44:57.178Z,101336.94
2023-04-06T07:47:24.618Z,101345.66
2023-04-06T07:49:52.036Z,101341.84
2023-04-06T07:52:19.371Z,101340.94
2023-04-06T07:54:47.319Z,101341.59
2023-04-06T07:57:13.897Z,101346.06
2023-04-06T07:59:41.092Z,101348.94
2023-04-06T08:02:07.897Z,101344.69
2023-04-06T08:04:34.746Z,101343.25
2023-04-06T08:07:01.486Z,101341.47
2023-04-06T08:09:28.653Z,101350.78
2023-04-06T08:11:55.195Z,101343.25
2023-04-06T08:14:22.017Z,101347.94
2023-04-06T08:16:48.682Z,101346.31
2023-04-06T08:19:18.276Z,101353.38
2023-04-06T08:21:45.088Z,101344.91
2023-04-06T08:24:11.875Z,101358.44
2023-04-06T08:26:38.723Z,101349.16
2023-04-06T08:29:08.440Z,101349.81
2023-04-06T08:31:36.066Z,101357.00
2023-04-06T08:34:05.239Z,101351.84
2023-04-06T08:36:32.173Z,101356.88
2023-04-06T08:39:00.845Z,101361.28
2023-04-06T08:41:28.650Z,101354.06
2023-04-06T08:44:00.686Z,101350.06
2023-04-06T08:46:31.436Z,101351.88
2023-04-06T08:49:00.202Z,101352.47
2023-04-06T08:51:28.380Z,101348.47
2023-04-06T08:53:56.491Z,101354.06
2023-04-06T08:56:24.465Z,101347.25
2023-04-06T08:58:54.565Z,101360.88
2023-04-06T09:01:30.522Z,101357.31
2023-04-06T09:04:08.224Z,101357.94
2023-04-06T09:06:37.810Z,101356.72
2023-04-06T09:09:04.648Z,101351.16
2023-04-06T09:11:46.630Z,101354.22
2023-04-06T09:14:13.879Z,101352.84
2023-04-06T09:16:42.778Z,101357.38
2023-04-06T09:19:14.228Z,101348.03
2023-04-06T09:21:41.117Z,101349.84
2023-04-06T09:24:09.348Z,101350.06
2023-04-06T09:26:48.749Z,101341.44
2023-04-06T09:29:34.232Z,101344.88
2023-04-06T09:32:04.958Z,101339.25
2023-04-06T09:34:34.853Z,101344.75
2023-04-06T09:37:02.478Z,101344.91
2023-04-06T09:39:29.491Z,101338.91
2023-04-06T09:41:57.324Z,101345.97
2023-04-06T09:44:25.127Z,101344.00
2023-04-06T09:47:00.538Z,101338.41
2023-04-06T09:49:31.099Z,101333.94
2023-04-06T09:52:02.619Z,101334.41
2023-04-06T09:54:31.601Z,101334.59
2023-04-06T09:57:20.375Z,101340.50
2023-04-06T10:00:15.395Z,101335.84
2023-04-06T10:03:07.852Z,101332.34
2023-04-06T10:05:47.575Z,101337.47
2023-04-06T10:08:15.073Z,101337.00
2023-04-06T10:10:43.543Z,101336.28
2023-04-06T10:13:12.592Z,101334.94
2023-04-06T10:16:01.022Z,101330.03
2023-04-06T10:18:29.027Z,101331.09
2023-04-06T10:21:02.892Z,101337.59
2023-04-06T10:23:55.465Z,101340.78
2023-04-06T10:26:22.644Z,101332.03
2023-04-06T10:28:50.653Z,101331.75
2023-04-06T10:31:44.255Z,101337.31
2023-04-06T10:34:11.122Z,101331.19
2023-04-06T10:36:37.988Z,101328.94
2023-04-06T10:39:07.161Z,101327.22
2023-04-06T10:41:42.109Z,101329.91
2023-04-06T10:44:17.956Z,101327.22
2023-04-06T10:46:53.966Z,101319.44
2023-04-06T10:49:21.349Z,101321.53
2023-04-06T10:51:53.405Z,101322.16
2023-04-06T10:54:23.655Z,101315.50
2023-04-06T10:56:50.785Z,101314.69
2023-04-06T10:59:25.973Z,101304.94
2023-04-06T11:01:54.053Z,101307.06
2023-04-06T11:04:22.132Z,101302.91
2023-04-06T11:06:52.755Z,101296.03
2023-04-06T11:09:27.024Z,101294.81
2023-04-06T11:11:54.070Z,101297.50
2023-04-06T11:14:20.761Z,101294.13
2023-04-06T11:16:50.223Z,101290.19
2023-04-06T11:19:17.645Z,101287.13
2023-04-06T11:21:49.682Z,101280.34
2023-04-06T11:24:25.972Z,101289.44
2023-04-06T11:26:56.162Z,101282.56
2023-04-06T11:29:27.688Z,101282.78
2023-04-06T11:32:05.622Z,101277.38
2023-04-06T11:34:39.562Z,101279.66
2023-04-06T11:37:11.780Z,101269.94
2023-04-06T11:39:42.336Z,101262.88
2023-04-06T11:42:09.681Z,101271.00
2023-04-06T11:44:41.426Z,101263.88
2023-04-06T11:47:09.636Z,101258.06
2023-04-06T11:49:43.940Z,101256.25
2023-04-06T11:52:28.578Z,101254.25
2023-04-06T11:54:57.794Z,101257.81
2023-04-06T11:57:29.030Z,101252.25
2023-04-06T11:59:56.309Z,101253.44
2023-04-06T12:02:23.177Z,101250.56
2023-04-06T12:04:49.946Z,101247.59
2023-04-06T12:07:16.748Z,101246.78
2023-04-06T12:09:44.171Z,101254.63
2023-04-06T12:12:11.149Z,101252.25
2023-04-06T12:14:37.908Z,101255.03
2023-04-06T12:17:04.483Z,101244.34
2023-04-06T12:19:32.505Z,101250.63
2023-04-06T12:21:59.949Z,101245.16
2023-04-06T12:24:26.688Z,101252.66
2023-04-06T12:27:02.732Z,101248.59
2023-04-06T12:29:35.941Z,101248.22
2023-04-06T12:32:03.110Z,101247.34
2023-04-06T12:34:30.201Z,101251.63
2023-04-06T12:36:57.238Z,101239.72
2023-04-06T12:39:24.717Z,101254.28
2023-04-06T12:41:51.459Z,101240.09
2023-04-06T12:44:18.558Z,101242.69
2023-04-06T12:46:46.188Z,101242.47
2023-04-06T12:49:12.860Z,101239.75
2023-04-06T12:51:39.572Z,101230.75
2023-04-06T12:54:07.821Z,101230.34
2023-04-06T12:56:34.393Z,101220.22
2023-04-06T12:59:01.613Z,101205.03
2023-04-06T13:01:29.299Z,101218.81
2023-04-06T13:03:57.557Z,101207.25
2023-04-06T13:06:28.217Z,101214.28
2023-04-06T13:08:55.684Z,101210.25
2023-04-06T13:11:26.269Z,101204.44
2023-04-06T13:13:54.401Z,101198.56
2023-04-06T13:16:21.668Z,101202.84
2023-04-06T13:18:48.734Z,101199.97
2023-04-06T13:21:17.334Z,101199.53
2023-04-06T13:23:44.797Z,101202.38
2023-04-06T13:26:14.362Z,101194.25
2023-04-06T13:28:41.716Z,101200.56
2023-04-06T13:31:09.396Z,101188.84
2023-04-06T13:33:36.605Z,101187.56
2023-04-06T13:36:04.181Z,101189.78
2023-04-06T13:38:31.481Z,101179.75
2023-04-06T13:40:58.610Z,101189.84
2023-04-06T13:43:27.321Z,101196.13
2023-04-06T13:45:56.799Z,101189.63
2023-04-06T13:48:23.938Z,101188.00
2023-04-06T13:50:51.076Z,101188.59
2023-04-06T13:53:20.654Z,101183.53
2023-04-06T13:55:54.279Z,101182.47
2023-04-06T13:58:20.987Z,101179.94
2023-04-06T14:00:47.863Z,101172.03
2023-04-06T14:03:15.052Z,101171.44
2023-04-06T14:05:41.674Z,101168.09
2023-04-06T14:08:08.249Z,101168.41
2023-04-06T14:10:43.090Z,101166.59
2023-04-06T14:13:10.524Z,101164.34
2023-04-06T14:15:37.730Z,101155.97
2023-04-06T14:18:05.099Z,101150.91
2023-04-06T14:20:33.566Z,101160.59
2023-04-06T14:23:04.616Z,101158.69
2023-04-06T14:25:35.122Z,101162.53
2023-04-06T14:28:02.334Z,101152.09
2023-04-06T14:30:31.504Z,101155.44
2023-04-06T14:32:59.554Z,101147.03
2023-04-06T14:35:28.871Z,101151.19
2023-04-06T14:37:57.849Z,101151.19
2023-04-06T14:40:24.974Z,101144.09
2023-04-06T14:42:53.301Z,101146.34
2023-04-06T14:45:22.560Z,101151.00
2023-04-06T14:47:49.699Z,101149.97
2023-04-06T14:50:16.570Z,101139.59
2023-04-06T14:52:47.297Z,101144.81
2023-04-06T14:55:15.104Z,101148.16
2023-04-06T14:57:41.609Z,101141.69
2023-04-06T15:00:11.950Z,101139.84
2023-04-06T15:02:39.256Z,101134.81
2023-04-06T15:05:08.371Z,101131.47
2023-04-06T15:07:35.022Z,101137.31
2023-04-06T15:10:01.837Z,101132.22
2023-04-06T15:12:30.678Z,101135.09
2023-04-06T15:14:59.140Z,101122.78
2023-04-06T15:17:27.557Z,101117.13
2023-04-06T15:19:56.630Z,101126.09
2023-04-06T15:22:23.425Z,101116.94
2023-04-06T15:24:50.208Z,101129.44
2023-04-06T15:27:16.791Z,101119.34
2023-04-06T15:29:43.480Z,101129.44
2023-04-06T15:32:10.852Z,101119.31
2023-04-06T15:34:37.702Z,101122.56
2023-04-06T15:37:06.400Z,101119.66
2023-04-06T15:39:33.574Z,101111.91
2023-04-06T15:42:01.171Z,101120.50
2023-04-06T15:44:27.726Z,101119.94
2023-04-06T15:46:54.460Z,101108.69
2023-04-06T15:49:21.585Z,101108.06
2023-04-06T15:51:51.877Z,101103.41
2023-04-06T15:54:20.094Z,101103.81
2023-04-06T15:56:47.507Z,101100.50
2023-04-06T15:59:15.436Z,101104.88
2023-04-06T16:01:43.582Z,101094.09
2023-04-06T16:04:11.905Z,101095.59
2023-04-06T16:06:38.776Z,101100.84
2023-04-06T16:09:05.419Z,101097.03
2023-04-06T16:11:34.548Z,101095.72
2023-04-06T16:14:04.835Z,101091.25
2023-04-06T16:16:31.737Z,101094.72
2023-04-06T16:18:58.496Z,101096.97
2023-04-06T16:21:27.953Z,101096.38
2023-04-06T16:23:54.755Z,101095.50
2023-04-06T16:26:22.408Z,101085.25
2023-04-06T16:28:49.754Z,101095.41
2023-04-06T16:31:24.200Z,101083.28
2023-04-06T16:33:56.502Z,101086.25
2023-04-06T16:36:28.042Z,101086.69
2023-04-06T16:38:58.177Z,101082.31
2023-04-06T16:41:27.573Z,101089.53
2023-04-06T16:43:57.330Z,101083.28
2023-04-06T16:46:36.279Z,101079.50
2023-04-06T16:49:05.184Z,101074.81
2023-04-06T16:51:33.291Z,101076.25
2023-04-06T16:54:00.468Z,101071.59
2023-04-06T16:56:28.512Z,101078.47
2023-04-06T16:58:55.728Z,101076.44
2023-04-06T17:01:25.478Z,101071.69
2023-04-06T17:03:53.325Z,101079.44
2023-04-06T17:06:20.700Z,101084.00
2023-04-06T17:08:50.649Z,101077.34
2023-04-06T17:11:20.285Z,101077.31
2023-04-06T17:13:50.807Z,101074.22
2023-04-06T17:16:18.270Z,101069.53
2023-04-06T17:18:45.124Z,101066.38
2023-04-06T17:21:15.552Z,101067.94
2023-04-06T17:23:42.572Z,101060.72
2023-04-06T17:26:09.336Z,101067.28
2023-04-06T17:28:37.581Z,101068.25
2023-04-06T17:31:11.131Z,101072.09
2023-04-06T17:33:39.549Z,101077.88
2023-04-06T17:36:08.020Z,101070.75
2023-04-06T17:38:37.366Z,101072.19
2023-04-06T17:41:08.207Z,101070.28
2023-04-06T17:43:35.146Z,101074.94
2023-04-06T17:46:01.924Z,101072.16
2023-04-06T17:48:29.849Z,101072.91
2023-04-06T17:50:56.550Z,101078.75
2023-04-06T17:53:23.336Z,101077.00
2023-04-06T17:55:50.072Z,101075.69
2023-04-06T17:58:16.899Z,101076.28
2023-04-06T18:00:43.768Z,101077.09
2023-04-06T18:03:10.559Z,101079.34
2023-04-06T18:05:39.623Z,101091.75
2023-04-06T18:08:06.540Z,101080.47
2023-04-06T18:10:39.084Z,101084.81
2023-04-06T18:13:08.301Z,101081.13
2023-04-06T18:15:36.527Z,101082.63
2023-04-06T18:18:03.445Z,101089.22
2023-04-06T18:20:31.620Z,101088.50
2023-04-06T18:23:00.245Z,101090.28
2023-04-06T18:25:27.797Z,101089.56
2023-04-06T18:27:54.867Z,101097.44
2023-04-06T18:30:21.791Z,101091.81
2023-04-06T18:32:50.011Z,101087.28
2023-04-06T18:35:24.684Z,101096.84
2023-04-06T18:37:51.800Z,101100.59
2023-04-06T18:40:38.740Z,101094.94
2023-04-06T18:43:07.529Z,101104.66
2023-04-06T18:45:35.707Z,101102.94
2023-04-06T18:48:03.179Z,101092.50
2023-04-06T18:50:29.890Z,101104.50
2023-04-06T18:52:56.733Z,101106.59
2023-04-06T18:55:23.921Z,101108.78
2023-04-06T18:57:50.957Z,101110.56
2023-04-06T19:00:17.911Z,101111.94
2023-04-06T19:02:45.972Z,101112.38
2023-04-06T19:05:13.730Z,101114.97
2023-04-06T19:07:42.410Z,101112.78
2023-04-06T19:10:10.678Z,101117.56
2023-04-06T19:12:40.091Z,101118.09
2023-04-06T19:15:08.097Z,101114.41
2023-04-06T19:17:35.404Z,101127.59
2023-04-06T19:20:02.716Z,101135.56
2023-04-06T19:22:29.709Z,101132.91
2023-04-06T19:25:00.867Z,101128.69
2023-04-06T19:27:27.578Z,101131.75
2023-04-06T19:29:54.391Z,101133.38
2023-04-06T19:32:21.208Z,101134.56
2023-04-06T19:34:48.752Z,101139.38
2023-04-06T19:37:15.470Z,101137.25
2023-04-06T19:39:44.245Z,101145.44
2023-04-06T19:42:12.508Z,101140.72
2023-04-06T19:44:41.257Z,101141.53
2023-04-06T19:47:08.764Z,101141.50
2023-04-06T19:49:35.530Z,101148.22
2023-04-06T19:52:02.360Z,101139.22
2023-04-06T19:54:29.674Z,101148.34
2023-04-06T19:56:57.090Z,101149.13
2023-04-06T19:59:23.718Z,101152.00
2023-04-06T20:01:50.453Z,101151.13
2023-04-06T20:04:17.343Z,101157.09
2023-04-06T20:06:44.463Z,101162.03
2023-04-06T20:09:12.094Z,101151.44
2023-04-06T20:11:38.858Z,101158.34
2023-04-06T20:14:06.060Z,101158.78
2023-04-06T20:16:34.322Z,101158.44
2023-04-06T20:19:01.384Z,101167.66
2023-04-06T20:21:28.090Z,101169.78
2023-04-06T20:23:54.984Z,101171.72
2023-04-06T20:26:21.721Z,101174.34
2023-04-06T20:28:48.672Z,101168.47
2023-04-06T20:31:15.467Z,101181.97
2023-04-06T20:33:42.074Z,101178.66
2023-04-06T20:36:09.443Z,101177.31
2023-04-06T20:38:36.299Z,101173.34
2023-04-06T20:41:05.334Z,101169.28
2023-04-06T20:43:32.525Z,101178.31
2023-04-06T20:46:02.320Z,101171.53
2023-04-06T20:48:33.558Z,101179.91
2023-04-06T20:51:02.894Z,101176.88
2023-04-06T20:53:29.705Z,101173.28
2023-04-06T20:55:58.099Z,101170.97
2023-04-06T20:58:24.717Z,101175.75
2023-04-06T21:00:51.698Z,101170.47
2023-04-06T21:03:18.708Z,101174.13
2023-04-06T21:05:53.294Z,101175.84
2023-04-06T21:08:20.043Z,101181.59
2023-04-06T21:10:46.766Z,101177.31
2023-04-06T21:13:13.780Z,101183.34
2023-04-06T21:15:41.191Z,101178.53
2023-04-06T21:18:08.288Z,101181.03
2023-04-06T21:20:35.495Z,101185.91
2023-04-06T21:23:03.828Z,101187.88
2023-04-06T21:25:30.806Z,101183.91
2023-04-06T21:27:57.658Z,101178.47
2023-04-06T21:30:24.205Z,101192.88
2023-04-06T21:32:50.826Z,101191.03
2023-04-06T21:35:17.471Z,101193.13
2023-04-06T21:37:44.156Z,101189.78
2023-04-06T21:40:12.592Z,101183.22
2023-04-06T21:42:39.229Z,101188.53
2023-04-06T21:45:06.590Z,101195.03
2023-04-06T21:47:35.171Z,101189.69
2023-04-06T21:50:02.243Z,101199.47
2023-04-06T21:52:29.188Z,101188.50
2023-04-06T21:54:55.940Z,101186.94
2023-04-06T21:57:22.589Z,101199.91
2023-04-06T21:59:50.520Z,101191.50
2023-04-06T22:02:17.225Z,101193.47
2023-04-06T22:04:44.244Z,101196.44
2023-04-06T22:07:11.343Z,101194.41
2023-04-06T22:09:40.081Z,101197.59
2023-04-06T22:12:06.922Z,101196.88
2023-04-06T22:14:34.409Z,101199.56
2023-04-06T22:17:01.106Z,101196.44
2023-04-06T22:19:27.865Z,101196.38
2023-04-06T22:21:54.513Z,101197.59
2023-04-06T22:24:21.160Z,101197.06
2023-04-06T22:26:48.483Z,101200.22
2023-04-06T22:29:15.192Z,101196.88
2023-04-06T22:31:41.890Z,101205.19
2023-04-06T22:34:08.489Z,101207.53
2023-04-06T22:36:35.368Z,101211.84
2023-04-06T22:39:04.961Z,101211.50
2023-04-06T22:41:50.959Z,101218.97
2023-04-06T22:44:18.414Z,101222.13
2023-04-06T22:46:45.588Z,101222.56
2023-04-06T22:49:12.270Z,101225.44
2023-04-06T22:51:41.888Z,101228.44
2023-04-06T22:54:11.882Z,101226.69
2023-04-06T22:56:38.532Z,101234.44
2023-04-06T22:59:05.120Z,101230.19
2023-04-06T23:01:31.877Z,101229.28
2023-04-06T23:03:58.667Z,101230.13
2023-04-06T23:06:27.372Z,101232.25
2023-04-06T23:08:54.138Z,101234.50
2023-04-06T23:11:21.456Z,101233.50
2023-04-06T23:13:48.310Z,101240.81
2023-04-06T23:16:15.074Z,101237.97
2023-04-06T23:18:42.356Z,101243.41
2023-04-06T23:21:09.016Z,101241.44
2023-04-06T23:23:35.845Z,101245.16
2023-04-06T23:26:03.219Z,101248.94
2023-04-06T23:28:29.884Z,101250.09
2023-04-06T23:30:56.822Z,101253.41
2023-04-06T23:33:23.771Z,101247.75
2023-04-06T23:35:51.110Z,101260.88
2023-04-06T23:38:17.833Z,101261.09
2023-04-06T23:40:44.456Z,101257.03
2023-04-06T23:43:11.226Z,101257.81
2023-04-06T23:45:42.550Z,101265.88
2023-04-06T23:48:10.409Z,101272.59
2023-04-06T23:50:37.541Z,101266.72
2023-04-06T23:53:04.729Z,101275.25
2023-04-06T23:55:32.382Z,101270.84
2023-04-06T23:57:59.327Z,101268.41
